Time;durP1;ratioP1;P1;durP2;ratioP2;P2;SDS_P1;SDS_P2;PMS_P1;PMS_P2;Temp;Humidity;BMP_temperature;BMP_pressure;BME280_temperature;BME280_humidity;BME280_pressure;Samples;Min_cycle;Max_cycle;Signal;HPM_P1;HPM_P2
2022/01/22 00:01:45;;;;;;;18.17;9.63;;;5.40;99.90;;;;;;5011738;28;20030;-48
2022/01/22 00:04:11;;;;;;;16.65;9.93;;;5.40;99.90;;;;;;5013328;28;20105;-48
2022/01/22 00:06:36;;;;;;;18.50;11.38;;;5.50;99.90;;;;;;5012223;28;20117;-48
2022/01/22 00:09:04;;;;;;;21.25;11.18;;;5.60;99.90;;;;;;5012235;28;20033;-48
2022/01/22 00:11:35;;;;;;;20.75;12.52;;;5.60;99.90;;;;;;5012174;28;20036;-48
2022/01/22 00:16:45;;;;;;;15.85;10.60;;;5.70;99.90;;;;;;5011723;28;20080;-48
2022/01/22 00:19:11;;;;;;;19.60;11.25;;;5.80;99.90;;;;;;5012074;28;20021;-48
2022/01/22 00:21:37;;;;;;;23.08;11.68;;;5.70;99.90;;;;;;5011849;28;20428;-48
2022/01/22 00:24:07;;;;;;;19.17;11.93;;;5.90;99.90;;;;;;5011935;28;20112;-47
2022/01/22 00:26:32;;;;;;;23.05;12.52;;;5.90;99.90;;;;;;5011463;28;20092;-48
2022/01/22 00:28:58;;;;;;;22.75;12.75;;;5.90;99.90;;;;;;5011173;28;20046;-47
2022/01/22 00:31:24;;;;;;;18.40;12.18;;;5.90;99.90;;;;;;5011255;28;20415;-47
2022/01/22 00:33:50;;;;;;;23.77;11.75;;;5.90;99.90;;;;;;5011640;28;20026;-48
2022/01/22 00:36:15;;;;;;;20.33;11.20;;;5.80;99.90;;;;;;5011452;28;20034;-47
2022/01/22 00:38:41;;;;;;;19.83;11.85;;;5.80;99.90;;;;;;5011811;28;20033;-48
2022/01/22 00:41:07;;;;;;;18.92;11.57;;;5.70;99.90;;;;;;5011389;28;20034;-48
2022/01/22 00:43:32;;;;;;;22.67;12.20;;;5.70;99.90;;;;;;5010639;28;20032;-48
2022/01/22 00:45:59;;;;;;;15.95;11.73;;;5.80;99.90;;;;;;5011354;28;20449;-48
2022/01/22 00:48:25;;;;;;;18.15;11.95;;;5.70;99.90;;;;;;5011772;28;20026;-47
2022/01/22 00:50:54;;;;;;;20.63;13.15;;;5.80;99.90;;;;;;5011534;28;20144;-48
2022/01/22 00:53:20;;;;;;;17.48;11.88;;;5.90;99.90;;;;;;5011942;28;20415;-48
2022/01/22 00:55:45;;;;;;;19.45;12.18;;;5.80;99.90;;;;;;5011776;28;20026;-48
2022/01/22 00:58:11;;;;;;;20.30;12.07;;;5.80;99.90;;;;;;5011321;28;20105;-47
2022/01/22 01:00:36;;;;;;;21.52;12.55;;;5.70;99.90;;;;;;5011123;28;20025;-47
2022/01/22 01:03:03;;;;;;;19.23;11.88;;;5.80;99.90;;;;;;5011370;28;20026;-47
2022/01/22 01:05:29;;;;;;;20.70;12.68;;;5.70;99.90;;;;;;5011322;28;20392;-48
2022/01/22 01:07:54;;;;;;;19.77;12.77;;;5.70;99.90;;;;;;5011427;28;20053;-47
2022/01/22 01:10:21;;;;;;;19.23;13.20;;;5.70;99.90;;;;;;5011463;28;20029;-47
2022/01/22 01:12:48;;;;;;;27.40;13.88;;;5.80;99.90;;;;;;5010672;28;20034;-47
2022/01/22 01:32:08;;;;;;;25.90;13.68;;;5.70;99.90;;;;;;5010769;28;20519;-47
2022/01/22 01:34:30;;;;;;;23.08;14.80;;;5.60;99.90;;;;;;5011141;28;20041;-48
2022/01/22 01:36:56;;;;;;;25.85;14.18;;;5.70;99.90;;;;;;5010795;28;20387;-48
2022/01/22 01:39:32;;;;;;;19.10;14.02;;;5.70;99.90;;;;;;5010977;28;20105;-48
2022/01/22 01:42:08;;;;;;;23.90;14.25;;;5.70;99.90;;;;;;5010659;28;20026;-48
2022/01/22 01:44:34;;;;;;;19.10;14.00;;;5.70;99.90;;;;;;5011045;28;20052;-48
2022/01/22 01:47:04;;;;;;;24.20;14.50;;;5.70;99.90;;;;;;5010912;28;20530;-48
2022/01/22 01:49:31;;;;;;;24.75;14.95;;;5.80;99.90;;;;;;5010922;28;20118;-48
2022/01/22 01:51:59;;;;;;;24.95;14.90;;;5.80;99.90;;;;;;5010814;28;20030;-48
2022/01/22 01:59:45;;;;;;;20.48;14.98;;;5.70;99.90;;;;;;5010801;28;20100;-48
2022/01/22 02:02:11;;;;;;;23.45;14.95;;;5.70;99.90;;;;;;5010812;28;20368;-48
2022/01/22 02:04:37;;;;;;;23.27;14.60;;;5.80;99.90;;;;;;5010794;28;20017;-47
2022/01/22 02:07:04;;;;;;;22.27;15.25;;;5.90;99.90;;;;;;5009121;28;20029;-48
2022/01/22 02:09:30;;;;;;;23.55;15.50;;;5.90;99.90;;;;;;5010734;28;20056;-48
2022/01/22 02:12:11;;;;;;;24.17;15.43;;;5.90;99.90;;;;;;5010501;28;20022;-48
2022/01/22 02:25:20;;;;;;;28.85;16.45;;;5.90;99.90;;;;;;5012130;28;20072;-48
2022/01/22 02:27:45;;;;;;;29.33;17.60;;;5.90;99.90;;;;;;5013652;28;20410;-48
2022/01/22 02:30:18;;;;;;;30.25;17.90;;;5.90;99.90;;;;;;5013627;28;20048;-48
2022/01/22 02:35:17;;;;;;;29.00;17.73;;;5.90;99.90;;;;;;5012744;28;20030;-48
2022/01/22 02:37:53;;;;;;;26.45;17.33;;;5.90;99.90;;;;;;5012496;28;20565;-48
2022/01/22 02:40:26;;;;;;;29.30;17.73;;;5.90;99.90;;;;;;5013611;28;20109;-48
2022/01/22 02:42:52;;;;;;;29.50;18.35;;;5.90;99.90;;;;;;5014186;28;20076;-46
2022/01/22 02:45:21;;;;;;;36.08;18.88;;;5.90;99.90;;;;;;5013349;28;20045;-47
2022/01/22 02:47:47;;;;;;;30.33;18.48;;;5.90;99.90;;;;;;5013137;28;20105;-47
2022/01/22 02:50:14;;;;;;;29.52;18.98;;;5.90;99.90;;;;;;5012970;28;20053;-47
2022/01/22 02:52:40;;;;;;;28.88;18.05;;;6.00;99.90;;;;;;5013277;28;20612;-47
2022/01/22 02:55:07;;;;;;;34.90;19.63;;;5.90;99.90;;;;;;5014120;28;20104;-47
2022/01/22 02:57:35;;;;;;;28.20;19.00;;;6.00;99.90;;;;;;5012632;28;20064;-47
2022/01/22 03:00:03;;;;;;;31.95;19.95;;;6.00;99.90;;;;;;5012699;28;20034;-47
2022/01/22 03:02:29;;;;;;;33.22;20.30;;;6.00;99.90;;;;;;5012543;28;20018;-47
2022/01/22 03:04:54;;;;;;;31.00;20.15;;;6.00;99.90;;;;;;5011609;28;20487;-47
2022/01/22 03:07:20;;;;;;;33.75;20.50;;;6.00;99.90;;;;;;5012939;28;20041;-46
2022/01/22 03:09:48;;;;;;;30.55;20.52;;;6.10;99.90;;;;;;5012618;28;20433;-47
2022/01/22 03:12:44;;;;;;;35.35;20.98;;;6.10;99.90;;;;;;5013221;28;20489;-47
2022/01/22 03:28:02;;;;;;;34.97;21.30;;;6.10;99.90;;;;;;5013675;28;20515;-47
2022/01/22 03:30:27;;;;;;;33.13;20.95;;;6.10;99.90;;;;;;5012344;28;20253;-47
2022/01/22 03:32:55;;;;;;;34.05;21.65;;;6.00;99.90;;;;;;5012448;28;20030;-47
2022/01/22 03:37:51;;;;;;;38.80;21.42;;;5.90;99.90;;;;;;5011760;28;20050;-47
2022/01/22 03:40:20;;;;;;;34.85;22.52;;;6.00;99.90;;;;;;5012234;28;20026;-47
2022/01/22 03:42:47;;;;;;;36.55;21.63;;;6.00;99.90;;;;;;5012123;28;20045;-47
2022/01/22 03:45:12;;;;;;;37.13;22.73;;;6.10;99.90;;;;;;5012384;28;20463;-47
2022/01/22 03:47:39;;;;;;;42.55;23.05;;;6.10;99.90;;;;;;5012363;28;20030;-47
2022/01/22 03:50:06;;;;;;;36.35;23.02;;;6.20;99.90;;;;;;5012787;28;20026;-47
2022/01/22 03:52:32;;;;;;;38.90;23.15;;;6.20;99.90;;;;;;5012282;28;20030;-47
2022/01/22 03:54:57;;;;;;;40.28;23.52;;;6.30;99.90;;;;;;5012179;28;20033;-47
2022/01/22 03:57:24;;;;;;;35.15;22.42;;;6.30;99.90;;;;;;5012191;28;20025;-47
2022/01/22 03:59:52;;;;;;;35.03;21.85;;;6.20;99.90;;;;;;5012064;28;20052;-47
2022/01/22 04:05:04;;;;;;;35.65;22.60;;;6.20;99.90;;;;;;5012563;28;20454;-47
2022/01/22 04:10:13;;;;;;;37.53;23.98;;;6.30;99.90;;;;;;5011675;28;20030;-47
2022/01/22 04:12:57;;;;;;;38.35;23.17;;;6.20;99.90;;;;;;5011559;28;20026;-47
2022/01/22 04:15:26;;;;;;;37.10;23.58;;;6.20;99.90;;;;;;5012297;28;20534;-47
2022/01/22 04:26:24;;;;;;;37.17;23.63;;;6.30;99.90;;;;;;5011745;28;20510;-47
2022/01/22 04:28:49;;;;;;;37.00;23.40;;;6.20;99.90;;;;;;5011525;28;20525;-47
2022/01/22 04:31:15;;;;;;;38.33;23.48;;;6.20;99.90;;;;;;5011164;28;20104;-46
2022/01/22 04:33:41;;;;;;;39.38;24.40;;;6.20;99.90;;;;;;5010363;28;20038;-47
2022/01/22 04:36:07;;;;;;;38.85;23.58;;;6.20;99.90;;;;;;5011097;28;20614;-47
2022/01/22 04:38:32;;;;;;;40.15;24.55;;;6.10;99.90;;;;;;5010346;28;20030;-47
2022/01/22 04:40:59;;;;;;;45.80;25.15;;;6.10;99.90;;;;;;5011178;28;20162;-47
2022/01/22 04:43:25;;;;;;;39.30;23.55;;;6.30;99.90;;;;;;5009997;28;20025;-47
2022/01/22 04:46:05;;;;;;;39.15;24.92;;;6.30;99.90;;;;;;5011004;28;20033;-47
2022/01/22 04:48:52;;;;;;;39.28;24.15;;;6.20;99.90;;;;;;5010876;28;20022;-47
2022/01/22 04:56:48;;;;;;;43.15;24.73;;;6.20;99.90;;;;;;5011515;28;20037;-47
2022/01/22 04:59:14;;;;;;;42.55;24.20;;;6.20;99.90;;;;;;5011355;28;20018;-47
2022/01/22 05:01:40;;;;;;;41.10;24.58;;;6.10;99.90;;;;;;5011234;28;20037;-47
2022/01/22 05:04:05;;;;;;;40.53;25.15;;;6.10;99.90;;;;;;5011582;28;20022;-47
2022/01/22 05:06:31;;;;;;;42.95;25.50;;;6.10;99.90;;;;;;5011669;28;20475;-47
2022/01/22 05:08:57;;;;;;;40.45;25.30;;;6.10;99.90;;;;;;5010930;28;20037;-47
2022/01/22 05:11:24;;;;;;;40.88;25.05;;;6.10;99.90;;;;;;5011060;28;20054;-47
2022/01/22 05:13:51;;;;;;;40.30;25.42;;;6.10;99.90;;;;;;5011219;28;20033;-47
2022/01/22 05:16:16;;;;;;;46.20;24.67;;;6.20;99.90;;;;;;5010668;28;20024;-47
2022/01/22 05:18:53;;;;;;;39.70;25.17;;;6.10;99.90;;;;;;5009868;28;20030;-47
2022/01/22 05:21:20;;;;;;;45.25;25.92;;;6.20;99.90;;;;;;5011015;28;20029;-47
2022/01/22 05:23:47;;;;;;;45.88;24.88;;;6.20;99.90;;;;;;5010991;28;20109;-47
2022/01/22 05:26:41;;;;;;;41.08;24.83;;;6.20;99.90;;;;;;5010678;28;20077;-47
2022/01/22 05:39:25;;;;;;;41.00;25.80;;;6.30;99.90;;;;;;5010424;28;20025;-47
2022/01/22 05:41:51;;;;;;;43.28;25.55;;;6.20;99.90;;;;;;5009083;28;20022;-46
2022/01/22 05:44:17;;;;;;;37.92;24.48;;;6.10;99.90;;;;;;5010398;28;20106;-47
2022/01/22 05:46:43;;;;;;;42.50;25.95;;;6.10;99.90;;;;;;5010586;28;20542;-47
2022/01/22 05:49:09;;;;;;;42.65;26.10;;;6.10;99.90;;;;;;5010865;28;20080;-47
2022/01/22 05:51:38;;;;;;;49.60;26.65;;;6.10;99.90;;;;;;5011239;28;20434;-47
2022/01/22 05:59:37;;;;;;;46.75;26.13;;;6.20;99.90;;;;;;5011602;28;20080;-47
2022/01/22 06:02:08;;;;;;;48.53;25.88;;;6.20;99.90;;;;;;5014920;28;20077;-47
2022/01/22 06:04:35;;;;;;;42.45;26.17;;;6.20;99.90;;;;;;5015128;28;20403;-47
2022/01/22 06:07:02;;;;;;;40.42;26.48;;;6.20;99.90;;;;;;5014991;28;20030;-47
2022/01/22 06:09:27;;;;;;;43.58;25.60;;;6.20;99.90;;;;;;5014420;28;20091;-47
2022/01/22 06:11:58;;;;;;;43.95;26.30;;;6.20;99.90;;;;;;5014259;28;20033;-47
2022/01/22 06:14:24;;;;;;;51.50;26.67;;;6.20;99.90;;;;;;5012493;28;20387;-47
2022/01/22 06:16:50;;;;;;;44.10;26.77;;;6.20;99.90;;;;;;5014106;28;20033;-47
2022/01/22 06:19:16;;;;;;;43.85;25.88;;;6.20;99.90;;;;;;5013951;28;20018;-47
2022/01/22 06:21:42;;;;;;;45.88;27.02;;;6.20;99.90;;;;;;5014621;28;20141;-47
2022/01/22 06:24:07;;;;;;;46.90;26.15;;;6.30;99.90;;;;;;5014071;28;20109;-47
2022/01/22 06:26:35;;;;;;;42.60;26.70;;;6.40;99.90;;;;;;5014241;28;20085;-46
2022/01/22 06:29:02;;;;;;;49.85;27.48;;;6.30;99.90;;;;;;5013685;28;20078;-47
2022/01/22 06:31:28;;;;;;;41.90;25.85;;;6.30;99.90;;;;;;5014197;28;20467;-47
2022/01/22 06:33:53;;;;;;;45.40;26.55;;;6.20;99.90;;;;;;5012960;28;20128;-47
2022/01/22 06:36:19;;;;;;;44.80;26.05;;;6.20;99.90;;;;;;5013652;28;20022;-47
2022/01/22 06:38:45;;;;;;;46.03;27.75;;;6.20;99.90;;;;;;5013749;28;20053;-47
2022/01/22 06:43:54;;;;;;;49.88;28.42;;;6.20;99.90;;;;;;5013972;28;20037;-47
2022/01/22 06:46:20;;;;;;;48.60;28.23;;;6.30;99.90;;;;;;5013453;28;20014;-47
2022/01/22 06:48:46;;;;;;;46.78;26.80;;;6.30;99.90;;;;;;5013432;28;20143;-47
2022/01/22 06:51:11;;;;;;;45.78;27.20;;;6.30;99.90;;;;;;5013116;28;20030;-47
2022/01/22 06:53:40;;;;;;;49.53;27.60;;;6.30;99.90;;;;;;5013637;28;20438;-47
2022/01/22 06:56:08;;;;;;;46.92;27.35;;;6.30;99.90;;;;;;5012994;28;20029;-47
2022/01/22 06:58:33;;;;;;;41.53;26.23;;;6.30;99.90;;;;;;5013543;28;20419;-47
2022/01/22 07:00:59;;;;;;;44.25;26.48;;;6.30;99.90;;;;;;5013240;28;20022;-47
2022/01/22 07:03:25;;;;;;;47.20;27.58;;;6.30;99.90;;;;;;5013323;28;20404;-47
2022/01/22 07:05:51;;;;;;;40.47;26.05;;;6.30;99.90;;;;;;5012957;28;20511;-47
2022/01/22 07:08:16;;;;;;;44.83;25.95;;;6.30;99.90;;;;;;5013029;28;20483;-47
2022/01/22 07:10:42;;;;;;;47.90;25.52;;;6.30;99.90;;;;;;5013167;28;20045;-47
2022/01/22 07:13:07;;;;;;;44.53;26.77;;;6.30;99.90;;;;;;5011932;28;20026;-47
2022/01/22 07:15:33;;;;;;;43.60;26.50;;;6.30;99.90;;;;;;5013245;28;20033;-48
2022/01/22 07:17:59;;;;;;;45.65;27.02;;;6.30;99.90;;;;;;5012663;28;20091;-47
2022/01/22 07:20:29;;;;;;;50.47;28.30;;;6.30;99.90;;;;;;5013149;28;20030;-47
2022/01/22 07:23:12;;;;;;;46.03;28.67;;;6.40;99.90;;;;;;5012487;28;20084;-47
2022/01/22 07:25:38;;;;;;;;;;;6.40;99.90;;;;;;5013254;28;20165;-46
2022/01/22 07:28:04;;;;;;;44.80;26.15;;;6.40;99.90;;;;;;5013037;28;19924;-47
2022/01/22 07:30:30;;;;;;;43.28;27.75;;;6.40;99.90;;;;;;5012334;28;20034;-47
2022/01/22 07:32:56;;;;;;;45.30;27.90;;;6.40;99.90;;;;;;5012382;28;20058;-47
2022/01/22 07:35:21;;;;;;;45.80;27.52;;;6.50;99.90;;;;;;5012414;28;20062;-47
2022/01/22 07:37:47;;;;;;;48.30;27.95;;;6.40;99.90;;;;;;5012590;28;20033;-47
2022/01/22 07:40:13;;;;;;;47.33;29.20;;;6.50;99.90;;;;;;5012355;28;20071;-48
2022/01/22 07:42:40;;;;;;;43.92;27.77;;;6.50;99.90;;;;;;5010607;28;20022;-48
2022/01/22 07:45:07;;;;;;;47.47;27.08;;;6.50;99.90;;;;;;5012151;28;20160;-47
2022/01/22 07:47:32;;;;;;;46.00;28.33;;;6.50;99.90;;;;;;5012337;28;20026;-48
2022/01/22 07:49:58;;;;;;;49.40;30.20;;;6.50;99.90;;;;;;5012133;28;20014;-47
2022/01/22 07:52:24;;;;;;;47.30;29.63;;;6.50;99.90;;;;;;5011670;28;20440;-48
2022/01/22 07:54:50;;;;;;;42.78;28.45;;;6.60;99.90;;;;;;5011928;28;20037;-47
2022/01/22 07:57:16;;;;;;;48.08;28.15;;;6.60;99.90;;;;;;5011959;28;20026;-48
2022/01/22 07:59:41;;;;;;;46.35;28.02;;;6.60;99.90;;;;;;5013417;28;20026;-49
2022/01/22 08:02:07;;;;;;;43.13;27.38;;;6.60;99.90;;;;;;5012339;28;20026;-47
2022/01/22 08:04:33;;;;;;;47.97;28.05;;;6.70;99.90;;;;;;5011481;28;20040;-47
2022/01/22 08:07:03;;;;;;;41.47;27.23;;;6.60;99.90;;;;;;5011923;28;20036;-47
2022/01/22 08:09:29;;;;;;;43.78;27.35;;;6.70;99.90;;;;;;5012262;28;20028;-47
2022/01/22 08:11:55;;;;;;;45.25;27.45;;;6.70;99.90;;;;;;5012486;28;20064;-47
2022/01/22 08:14:21;;;;;;;41.75;25.70;;;6.70;99.90;;;;;;5011916;28;20531;-48
2022/01/22 08:16:48;;;;;;;44.22;27.35;;;6.70;99.90;;;;;;5011351;28;20026;-48
2022/01/22 08:19:15;;;;;;;45.15;26.58;;;6.70;99.90;;;;;;5011277;28;20472;-47
2022/01/22 08:21:42;;;;;;;48.03;27.85;;;6.80;99.90;;;;;;5012611;28;20026;-48
2022/01/22 08:24:08;;;;;;;42.13;26.13;;;6.80;99.90;;;;;;5011809;28;20463;-47
2022/01/22 08:26:38;;;;;;;43.00;27.67;;;6.80;99.90;;;;;;5011387;28;20026;-47
2022/01/22 08:29:04;;;;;;;42.65;26.73;;;6.80;99.90;;;;;;5011618;28;20515;-47
2022/01/22 08:36:44;;;;;;;43.03;26.88;;;6.50;99.90;;;;;;5012315;28;20443;-48
2022/01/22 08:39:09;;;;;;;43.00;27.38;;;6.50;99.90;;;;;;5012670;28;20025;-49
2022/01/22 08:41:36;;;;;;;44.85;26.52;;;6.40;99.90;;;;;;5011741;28;20026;-47
2022/01/22 08:44:02;;;;;;;41.72;26.13;;;6.40;99.90;;;;;;5011919;28;20371;-47
2022/01/22 08:46:29;;;;;;;42.38;26.58;;;6.50;99.90;;;;;;5011422;28;20029;-47
2022/01/22 08:48:55;;;;;;;42.47;25.70;;;6.40;99.90;;;;;;5012576;28;20499;-47
2022/01/22 08:51:21;;;;;;;43.42;26.67;;;6.50;99.90;;;;;;5011730;28;20026;-47
2022/01/22 08:53:48;;;;;;;44.75;25.92;;;6.50;99.90;;;;;;5011746;28;20029;-47
2022/01/22 08:56:13;;;;;;;44.28;26.48;;;6.50;99.90;;;;;;5012029;28;20034;-47
2022/01/22 08:58:39;;;;;;;45.42;27.55;;;6.50;99.90;;;;;;5011265;28;20426;-47
2022/01/22 09:01:05;;;;;;;41.15;26.55;;;6.50;99.90;;;;;;5011151;28;20033;-47
2022/01/22 09:03:32;;;;;;;47.40;26.95;;;6.50;99.90;;;;;;5011688;28;20060;-47
2022/01/22 09:05:58;;;;;;;46.83;27.88;;;6.50;99.90;;;;;;5011568;28;20029;-47
2022/01/22 09:08:25;;;;;;;42.95;26.80;;;6.60;99.90;;;;;;5011249;28;20032;-47
2022/01/22 09:10:52;;;;;;;42.78;26.85;;;6.60;99.90;;;;;;5011243;28;20054;-47
2022/01/22 09:13:23;;;;;;;45.95;27.15;;;6.60;99.90;;;;;;5011426;28;20503;-47
2022/01/22 09:15:50;;;;;;;45.92;27.83;;;6.60;99.90;;;;;;5010752;28;20408;-48
2022/01/22 09:18:16;;;;;;;44.53;28.10;;;6.70;99.90;;;;;;5011260;28;20030;-47
2022/01/22 09:23:10;;;;;;;42.72;26.70;;;6.70;99.90;;;;;;5011631;28;20030;-47
2022/01/22 09:25:36;;;;;;;44.92;28.42;;;6.60;99.90;;;;;;5011826;28;20022;-47
2022/01/22 09:28:03;;;;;;;40.65;25.88;;;6.70;99.90;;;;;;5010603;28;20046;-47
2022/01/22 09:30:30;;;;;;;41.05;27.05;;;6.60;99.90;;;;;;5010736;28;20029;-47
2022/01/22 09:32:55;;;;;;;46.38;26.42;;;6.60;99.90;;;;;;5010460;28;20522;-47
2022/01/22 09:35:21;;;;;;;49.22;28.33;;;6.60;99.90;;;;;;5012630;28;20073;-47
2022/01/22 09:37:47;;;;;;;42.78;25.63;;;6.60;99.90;;;;;;5014364;28;20077;-47
2022/01/22 09:40:13;;;;;;;42.83;27.23;;;6.60;99.90;;;;;;5014862;28;20056;-47
2022/01/22 09:42:40;;;;;;;40.28;27.63;;;6.50;99.90;;;;;;5014678;28;20226;-47
2022/01/22 09:45:07;;;;;;;45.85;26.77;;;6.50;99.90;;;;;;5014840;28;20022;-47
2022/01/22 09:47:34;;;;;;;40.83;26.80;;;6.50;99.90;;;;;;5014865;28;20026;-47
2022/01/22 09:50:00;;;;;;;44.40;28.02;;;6.60;99.90;;;;;;5014494;28;20110;-47
2022/01/22 09:52:26;;;;;;;40.30;26.77;;;6.80;99.90;;;;;;5014220;28;20313;-48
2022/01/22 09:54:52;;;;;;;39.83;26.13;;;6.90;99.90;;;;;;5014207;28;20032;-48
2022/01/22 09:57:17;;;;;;;44.38;27.63;;;7.00;99.90;;;;;;5014333;28;20038;-48
2022/01/22 09:59:44;;;;;;;40.75;26.20;;;7.00;99.90;;;;;;5014488;28;20080;-46
2022/01/22 10:02:11;;;;;;;41.88;25.98;;;7.00;99.90;;;;;;5014309;28;20026;-47
2022/01/22 10:04:41;;;;;;;42.40;27.10;;;6.90;99.90;;;;;;5014993;28;20904;-47
2022/01/22 10:07:17;;;;;;;39.30;26.20;;;6.90;99.90;;;;;;5014811;28;20487;-47
2022/01/22 10:09:57;;;;;;;41.58;26.83;;;6.90;99.90;;;;;;5014621;28;20565;-47
2022/01/22 10:12:24;;;;;;;43.45;25.88;;;6.90;99.90;;;;;;5014290;28;20502;-47
2022/01/22 10:15:05;;;;;;;46.72;28.60;;;6.80;99.90;;;;;;4997199;28;20029;-47
2022/01/22 10:17:43;;;;;;;46.97;27.30;;;7.10;99.90;;;;;;5014012;28;20060;-48
2022/01/22 10:20:24;;;;;;;48.47;26.98;;;7.20;99.90;;;;;;5012380;28;20434;-47
2022/01/22 10:22:51;;;;;;;39.33;26.15;;;7.30;99.90;;;;;;5013490;28;20117;-48
2022/01/22 10:25:32;;;;;;;41.55;27.30;;;7.30;99.90;;;;;;5012256;28;20073;-48
2022/01/22 10:28:07;;;;;;;38.15;25.92;;;7.40;99.90;;;;;;5013124;28;20056;-47
2022/01/22 10:30:35;;;;;;;41.10;25.58;;;7.50;99.90;;;;;;5012633;28;20036;-47
2022/01/22 10:33:26;;;;;;;41.95;25.55;;;7.30;99.90;;;;;;5012824;28;20034;-47
2022/01/22 10:35:51;;;;;;;43.95;27.80;;;7.10;99.90;;;;;;5012756;28;20076;-47
2022/01/22 10:38:18;;;;;;;40.47;26.63;;;6.90;99.90;;;;;;5012611;28;20480;-47
2022/01/22 10:40:46;;;;;;;43.53;28.83;;;6.90;99.90;;;;;;5012638;28;20076;-47
2022/01/22 10:43:33;;;;;;;51.20;30.58;;;6.70;99.90;;;;;;5011719;28;20052;-47
2022/01/22 10:46:19;;;;;;;42.20;29.35;;;6.80;99.90;;;;;;5012193;28;20152;-47
2022/01/22 10:49:04;;;;;;;48.20;29.73;;;6.80;99.90;;;;;;5012319;28;20014;-48
2022/01/22 10:51:31;;;;;;;53.40;29.77;;;7.00;99.90;;;;;;5011958;28;20026;-47
2022/01/22 10:54:02;;;;;;;42.42;29.02;;;7.00;99.90;;;;;;5012379;28;20030;-47
2022/01/22 10:56:30;;;;;;;43.15;29.20;;;7.10;99.90;;;;;;5012159;28;20447;-47
2022/01/22 10:59:04;;;;;;;41.65;27.08;;;7.10;99.90;;;;;;5015261;28;20022;-47
2022/01/22 11:01:43;;;;;;;41.95;27.30;;;7.20;99.90;;;;;;5014020;28;20398;-48
2022/01/22 11:04:16;;;;;;;48.63;30.77;;;7.20;99.90;;;;;;5016430;28;20025;-49
2022/01/22 11:06:50;;;;;;;43.10;28.17;;;7.20;99.90;;;;;;5013171;28;20034;-47
2022/01/22 11:09:16;;;;;;;42.65;26.48;;;7.30;99.90;;;;;;5012164;28;20041;-47
2022/01/22 11:11:42;;;;;;;45.67;25.50;;;7.20;99.90;;;;;;5012266;28;20026;-47
2022/01/22 11:14:10;;;;;;;38.97;25.83;;;7.20;99.90;;;;;;5012253;28;20384;-47
2022/01/22 11:16:39;;;;;;;36.60;25.13;;;7.20;99.90;;;;;;5012068;28;20029;-47
2022/01/22 11:19:07;;;;;;;40.13;25.05;;;7.30;99.90;;;;;;5011918;28;20026;-47
2022/01/22 11:21:33;;;;;;;40.25;27.42;;;7.20;99.90;;;;;;5011586;28;20022;-47
2022/01/22 11:23:59;;;;;;;44.30;27.02;;;7.30;99.90;;;;;;5011845;28;20029;-47
2022/01/22 11:26:25;;;;;;;42.83;26.40;;;7.30;99.90;;;;;;5011726;28;20022;-47
2022/01/22 11:28:53;;;;;;;39.92;26.48;;;7.30;99.90;;;;;;4975254;28;1083886;-47
2022/01/22 11:31:21;;;;;;;42.42;28.02;;;7.20;99.90;;;;;;5012851;28;20021;-47
2022/01/22 11:33:49;;;;;;;41.78;27.05;;;7.20;99.90;;;;;;5012538;28;20029;-47
2022/01/22 11:36:29;;;;;;;44.50;27.90;;;7.20;99.90;;;;;;5012852;28;20378;-47
2022/01/22 11:39:00;;;;;;;40.40;27.63;;;7.10;99.90;;;;;;5012726;28;20046;-47
2022/01/22 11:41:26;;;;;;;46.08;27.63;;;7.10;99.90;;;;;;5012427;28;20029;-47
2022/01/22 11:46:29;;;;;;;36.17;24.52;;;7.30;99.90;;;;;;5010902;28;20026;-47
2022/01/22 11:49:17;;;;;;;35.40;24.90;;;7.30;99.90;;;;;;5012059;28;20475;-48
2022/01/22 11:51:46;;;;;;;42.63;25.52;;;7.30;99.90;;;;;;5011968;28;20031;-48
2022/01/22 11:54:13;;;;;;;38.88;25.52;;;7.40;99.90;;;;;;5012251;28;20412;-48
2022/01/22 11:56:52;;;;;;;41.47;25.80;;;7.50;99.90;;;;;;5011633;28;20025;-48
2022/01/22 11:59:24;;;;;;;36.88;24.52;;;7.40;99.90;;;;;;5012054;28;20491;-47
2022/01/22 12:01:56;;;;;;;38.72;25.38;;;7.40;99.90;;;;;;5011663;28;20025;-48
2022/01/22 12:04:27;;;;;;;39.42;25.70;;;7.40;99.90;;;;;;5011868;28;20036;-47
2022/01/22 12:07:01;;;;;;;40.78;27.17;;;7.40;99.90;;;;;;5010168;28;20537;-48
2022/01/22 12:09:54;;;;;;;46.33;28.75;;;7.40;99.90;;;;;;5011140;28;20113;-48
2022/01/22 12:15:16;;;;;;;43.55;28.38;;;7.30;99.90;;;;;;5012120;28;20687;-48
2022/01/22 12:18:07;;;;;;;41.95;29.15;;;7.20;99.90;;;;;;5010278;28;20033;-48
2022/01/22 12:23:15;;;;;;;46.83;30.42;;;7.10;99.90;;;;;;5011597;28;20022;-48
2022/01/22 12:25:40;;;;;;;44.75;30.17;;;7.10;99.90;;;;;;5012058;28;20033;-48
2022/01/22 12:28:11;;;;;;;50.78;32.20;;;7.10;99.90;;;;;;5012377;28;20050;-48
2022/01/22 12:30:48;;;;;;;49.95;31.27;;;7.10;99.90;;;;;;5012051;28;20065;-48
2022/01/22 12:33:29;;;;;;;41.97;29.50;;;7.10;99.90;;;;;;5012031;28;20036;-48
2022/01/22 12:35:58;;;;;;;45.88;30.58;;;7.10;99.90;;;;;;5010156;28;20030;-48
2022/01/22 12:41:13;;;;;;;44.72;28.90;;;7.30;99.90;;;;;;5011504;28;20101;-48
2022/01/22 12:43:39;;;;;;;43.55;27.17;;;7.40;99.90;;;;;;5011415;28;20026;-48
2022/01/22 12:46:05;;;;;;;37.65;27.15;;;7.40;99.90;;;;;;5010887;28;20088;-48
2022/01/22 12:48:34;;;;;;;44.50;28.83;;;7.40;99.90;;;;;;5011438;28;20054;-48
2022/01/22 12:51:04;;;;;;;53.00;31.80;;;7.30;99.90;;;;;;5011531;28;20080;-48
2022/01/22 12:53:31;;;;;;;47.13;32.92;;;7.30;99.90;;;;;;5011295;28;20034;-48
2022/01/22 12:58:26;;;;;;;43.22;30.48;;;7.20;99.90;;;;;;5011529;28;20364;-48
2022/01/22 13:01:28;;;;;;;47.13;31.02;;;7.20;99.90;;;;;;5011556;28;20025;-47
2022/01/22 13:03:55;;;;;;;42.15;29.73;;;7.20;99.90;;;;;;5011202;28;20111;-48
2022/01/22 13:06:35;;;;;;;46.42;30.98;;;7.10;99.90;;;;;;5011043;28;20060;-48
2022/01/22 13:09:02;;;;;;;50.10;30.73;;;7.20;99.90;;;;;;5011209;28;20427;-48
2022/01/22 13:11:29;;;;;;;44.72;28.50;;;7.20;99.90;;;;;;5011306;28;20029;-48
2022/01/22 13:13:55;;;;;;;46.10;29.83;;;7.10;99.90;;;;;;5011418;28;20053;-48
2022/01/22 13:16:22;;;;;;;43.83;30.38;;;7.00;99.90;;;;;;5011279;28;20061;-49
2022/01/22 13:18:58;;;;;;;44.35;31.00;;;6.90;99.90;;;;;;5010937;28;20064;-48
2022/01/22 13:21:26;;;;;;;46.08;31.20;;;6.90;99.90;;;;;;5011474;28;20487;-48
2022/01/22 13:23:59;;;;;;;49.65;31.98;;;6.90;99.90;;;;;;5011161;28;20081;-47
2022/01/22 13:26:42;;;;;;;48.83;32.72;;;6.90;99.90;;;;;;5010465;28;20022;-48
2022/01/22 13:29:27;;;;;;;53.22;32.08;;;6.90;99.90;;;;;;5010755;28;20045;-47
2022/01/22 13:32:03;;;;;;;46.30;29.70;;;7.00;99.90;;;;;;5010639;28;20021;-48
2022/01/22 13:34:41;;;;;;;42.63;27.45;;;7.00;99.90;;;;;;5010999;28;20022;-48
2022/01/22 13:48:39;;;;;;;50.25;30.90;;;6.90;99.90;;;;;;5010661;28;20032;-48
2022/01/22 13:51:06;;;;;;;46.90;29.98;;;6.90;99.90;;;;;;5007310;28;20042;-48
2022/01/22 13:53:32;;;;;;;45.38;30.30;;;7.00;99.90;;;;;;5010963;28;20049;-48
2022/01/22 13:56:08;;;;;;;47.03;31.23;;;7.00;99.90;;;;;;5011066;28;20403;-47
2022/01/22 13:58:35;;;;;;;48.35;32.05;;;7.00;99.90;;;;;;5010367;28;20601;-48
2022/01/22 14:01:07;;;;;;;42.35;30.08;;;7.00;99.90;;;;;;5010570;28;20030;-48
2022/01/22 14:03:44;;;;;;;53.42;30.40;;;7.00;99.90;;;;;;5011138;28;20496;-48
2022/01/22 14:06:11;;;;;;;47.85;30.02;;;7.00;99.90;;;;;;5010711;28;20022;-48
2022/01/22 14:08:37;;;;;;;48.70;31.20;;;7.00;99.90;;;;;;5011001;28;20084;-47
2022/01/22 14:11:09;;;;;;;41.97;30.13;;;7.10;99.90;;;;;;5010653;28;20026;-48
2022/01/22 14:13:35;;;;;;;48.03;30.77;;;7.00;99.90;;;;;;5010884;28;20105;-48
2022/01/22 14:16:21;;;;;;;40.38;29.65;;;7.00;99.90;;;;;;5010852;28;20030;-47
2022/01/22 14:18:47;;;;;;;52.00;30.35;;;7.00;99.90;;;;;;5009137;28;20034;-48
2022/01/22 14:21:21;;;;;;;44.28;29.25;;;7.00;99.90;;;;;;5011734;28;20481;-48
2022/01/22 14:23:50;;;;;;;48.50;29.95;;;7.00;99.90;;;;;;5013824;28;20034;-48
2022/01/22 14:26:21;;;;;;;43.78;28.52;;;7.10;99.90;;;;;;5013790;28;20026;-47
2022/01/22 14:28:49;;;;;;;42.65;28.27;;;7.00;99.90;;;;;;5013946;28;20058;-48
2022/01/22 14:31:39;;;;;;;44.35;29.15;;;6.90;99.90;;;;;;5013983;28;20096;-48
2022/01/22 14:34:11;;;;;;;44.20;27.73;;;6.90;99.90;;;;;;5014335;28;20108;-47
2022/01/22 14:36:47;;;;;;;41.13;27.13;;;6.90;99.90;;;;;;5012224;28;20030;-48
2022/01/22 14:44:54;;;;;;;39.75;27.05;;;6.80;99.90;;;;;;5014369;28;20048;-48
2022/01/22 14:47:25;;;;;;;38.03;26.23;;;6.80;99.90;;;;;;5013724;28;20040;-48
2022/01/22 14:49:55;;;;;;;41.25;26.65;;;6.90;99.90;;;;;;5013657;28;20026;-48
2022/01/22 14:52:25;;;;;;;40.00;27.30;;;6.80;99.90;;;;;;5013944;28;20627;-48
2022/01/22 14:54:52;;;;;;;40.42;26.77;;;6.90;99.90;;;;;;5013416;28;20037;-48
2022/01/22 14:57:24;;;;;;;41.22;26.52;;;6.90;99.90;;;;;;5013492;28;20022;-48